createdAt,value
2018-09-19T00:01:59.075Z,4.95
2018-09-19T00:04:27.723Z,4.97
2018-09-19T00:06:56.983Z,5.00
2018-09-19T00:09:25.789Z,4.50
2018-09-19T00:11:54.403Z,5.03
2018-09-19T00:14:23.071Z,4.67
2018-09-19T00:16:51.738Z,5.12
2018-09-19T00:19:20.384Z,4.50
2018-09-19T00:21:49.039Z,4.65
2018-09-19T00:24:17.703Z,4.45
2018-09-19T00:26:46.425Z,4.92
2018-09-19T00:29:15.035Z,4.75
2018-09-19T00:31:43.679Z,4.37
2018-09-19T00:34:12.321Z,4.33
2018-09-19T00:36:47.292Z,4.72
2018-09-19T00:39:15.948Z,4.17
2018-09-19T00:41:44.613Z,4.53
2018-09-19T00:44:13.236Z,5.03
2018-09-19T00:46:41.878Z,4.42
2018-09-19T00:49:10.535Z,5.10
2018-09-19T00:51:39.229Z,5.12
2018-09-19T00:54:08.315Z,4.78
2018-09-19T00:56:37.003Z,4.72
2018-09-19T00:59:05.369Z,4.50
2018-09-19T01:01:34.092Z,4.65
2018-09-19T01:04:02.772Z,5.20
2018-09-19T01:06:31.474Z,4.72
2018-09-19T01:09:00.177Z,5.53
2018-09-19T01:11:28.882Z,5.23
2018-09-19T01:13:57.551Z,5.43
2018-09-19T01:16:26.265Z,5.80
2018-09-19T01:18:55.021Z,5.30
2018-09-19T01:21:23.784Z,5.70
2018-09-19T01:23:52.481Z,5.60
2018-09-19T01:26:21.214Z,5.00
2018-09-19T01:28:49.918Z,6.17
2018-09-19T01:31:18.845Z,6.17
2018-09-19T01:33:47.541Z,4.70
2018-09-19T01:36:16.208Z,6.00
2018-09-19T01:38:44.557Z,5.27
2018-09-19T01:41:13.263Z,5.33
2018-09-19T01:43:41.976Z,5.13
2018-09-19T01:46:10.728Z,5.33
2018-09-19T01:48:39.591Z,6.13
2018-09-19T01:51:08.259Z,5.17
2018-09-19T01:53:36.909Z,5.37
2018-09-19T01:56:05.676Z,5.20
2018-09-19T01:58:34.428Z,5.50
2018-09-19T02:01:03.102Z,5.00
2018-09-19T02:03:31.765Z,6.20
2018-09-19T02:06:00.451Z,5.10
2018-09-19T02:08:29.193Z,4.67
2018-09-19T02:10:58.077Z,4.70
2018-09-19T02:13:26.816Z,4.60
2018-09-19T02:15:55.556Z,5.07
2018-09-19T02:18:24.242Z,5.37
2018-09-19T02:20:52.875Z,5.07
2018-09-19T02:23:21.577Z,5.17
2018-09-19T02:25:50.254Z,4.27
2018-09-19T02:28:19.026Z,5.10
2018-09-19T02:30:47.736Z,6.07
2018-09-19T02:33:16.428Z,4.53
2018-09-19T02:35:45.110Z,3.83
2018-09-19T02:38:13.791Z,4.70
2018-09-19T02:40:42.541Z,5.30
2018-09-19T02:43:11.218Z,5.17
2018-09-19T02:45:40.148Z,5.40
2018-09-19T02:48:08.886Z,5.70
2018-09-19T02:50:37.651Z,5.57
2018-09-19T02:53:06.722Z,5.90
2018-09-19T02:55:35.385Z,6.60
2018-09-19T02:58:04.176Z,5.50
2018-09-19T03:00:32.909Z,5.03
2018-09-19T03:03:01.573Z,5.40
2018-09-19T03:05:30.240Z,5.13
2018-09-19T03:07:58.903Z,4.67
2018-09-19T03:10:27.631Z,4.23
2018-09-19T03:12:56.346Z,4.70
2018-09-19T03:15:25.031Z,4.40
2018-09-19T03:17:53.729Z,4.43
2018-09-19T03:20:22.406Z,4.47
2018-09-19T03:22:51.086Z,4.30
2018-09-19T03:25:19.755Z,4.28
2018-09-19T03:27:48.453Z,5.03
2018-09-19T03:30:17.196Z,4.90
2018-09-19T03:32:45.915Z,3.77
2018-09-19T03:35:14.620Z,5.37
2018-09-19T03:37:43.308Z,3.70
2018-09-19T03:40:11.992Z,4.53
2018-09-19T03:42:40.717Z,4.20
2018-09-19T03:45:09.419Z,3.92
2018-09-19T03:47:38.096Z,4.10
2018-09-19T03:50:06.787Z,4.65
2018-09-19T03:52:35.468Z,4.60
2018-09-19T03:55:04.176Z,5.30
2018-09-19T03:57:32.823Z,4.80
2018-09-19T04:00:01.573Z,4.72
2018-09-19T04:02:30.269Z,4.77
2018-09-19T04:04:58.991Z,4.30
2018-09-19T04:07:27.659Z,5.10
2018-09-19T04:09:56.444Z,4.17
2018-09-19T04:12:25.323Z,4.33
2018-09-19T04:14:54.031Z,4.97
2018-09-19T04:17:22.681Z,4.37
2018-09-19T04:19:51.370Z,4.80
2018-09-19T04:22:20.044Z,4.90
2018-09-19T04:24:48.756Z,4.10
2018-09-19T04:27:17.460Z,4.07
2018-09-19T04:29:46.166Z,4.23
2018-09-19T04:32:14.974Z,5.10
2018-09-19T04:34:43.734Z,4.93
2018-09-19T04:37:12.486Z,4.20
2018-09-19T04:39:41.158Z,4.67
2018-09-19T04:42:09.907Z,4.70
2018-09-19T04:44:38.612Z,4.87
2018-09-19T04:47:07.347Z,4.50
2018-09-19T04:49:36.083Z,5.30
2018-09-19T04:52:06.944Z,5.27
2018-09-19T04:54:36.139Z,5.07
2018-09-19T04:57:04.869Z,5.67
2018-09-19T04:59:33.593Z,5.23
2018-09-19T05:02:02.337Z,5.20
2018-09-19T05:04:31.061Z,5.20
2018-09-19T05:06:59.752Z,5.10
2018-09-19T05:09:28.443Z,5.67
2018-09-19T05:11:57.169Z,5.50
2018-09-19T05:14:26.046Z,5.47
2018-09-19T05:16:54.766Z,4.97
2018-09-19T05:19:23.983Z,5.50
2018-09-19T05:21:52.658Z,5.60
2018-09-19T05:24:21.430Z,4.73
2018-09-19T05:26:50.110Z,4.93
2018-09-19T05:29:18.838Z,5.57
2018-09-19T05:31:47.549Z,4.97
2018-09-19T05:34:16.520Z,4.50
2018-09-19T05:36:45.187Z,4.30
2018-09-19T05:39:13.894Z,5.33
2018-09-19T05:41:42.582Z,5.20
2018-09-19T05:44:11.275Z,4.67
2018-09-19T05:46:39.922Z,5.20
2018-09-19T05:49:08.612Z,5.20
2018-09-19T05:51:37.325Z,5.93
2018-09-19T05:54:06.065Z,5.93
2018-09-19T05:56:34.747Z,4.80
2018-09-19T05:59:03.428Z,5.50
2018-09-19T06:01:32.117Z,4.70
2018-09-19T06:04:01.268Z,5.77
2018-09-19T06:06:29.958Z,6.70
2018-09-19T06:08:58.680Z,5.23
2018-09-19T06:11:27.429Z,6.43
2018-09-19T06:13:56.137Z,5.30
2018-09-19T06:16:24.867Z,5.90
2018-09-19T06:18:53.549Z,5.07
2018-09-19T06:21:22.228Z,5.63
2018-09-19T06:23:50.984Z,5.57
2018-09-19T06:26:19.658Z,5.33
2018-09-19T06:28:48.501Z,5.27
2018-09-19T06:31:17.169Z,4.60
2018-09-19T06:33:45.905Z,5.27
2018-09-19T06:36:14.603Z,5.20
2018-09-19T06:38:43.323Z,5.30
2018-09-19T06:41:12.052Z,5.13
2018-09-19T06:43:40.789Z,4.67
2018-09-19T06:46:09.508Z,5.13
2018-09-19T06:48:38.242Z,5.03
2018-09-19T06:51:37.447Z,5.50
2018-09-19T06:54:06.137Z,4.87
2018-09-19T06:56:34.857Z,4.50
2018-09-19T06:59:03.647Z,5.43
2018-09-19T07:01:32.386Z,5.33
2018-09-19T07:04:01.108Z,5.27
2018-09-19T07:06:29.834Z,5.00
2018-09-19T07:08:58.499Z,5.60
2018-09-19T07:11:27.185Z,4.80
2018-09-19T07:13:55.894Z,5.13
2018-09-19T07:16:24.579Z,5.03
2018-09-19T07:18:53.299Z,5.90
2018-09-19T07:21:21.610Z,5.10
2018-09-19T07:23:50.314Z,5.13
2018-09-19T07:26:49.897Z,6.08
2018-09-19T07:29:18.642Z,5.45
2018-09-19T07:31:47.392Z,5.73
2018-09-19T07:34:16.492Z,5.17
2018-09-19T07:36:45.177Z,6.17
2018-09-19T07:39:13.889Z,5.03
2018-09-19T07:41:42.211Z,4.80
2018-09-19T07:44:10.928Z,5.65
2018-09-19T07:46:39.617Z,5.30
2018-09-19T07:49:08.310Z,4.62
2018-09-19T07:51:37.001Z,5.30
2018-09-19T07:54:05.700Z,4.50
2018-09-19T07:56:34.411Z,5.83
2018-09-19T07:59:03.288Z,5.40
2018-09-19T08:01:32.098Z,5.97
2018-09-19T08:04:00.796Z,4.72
2018-09-19T08:06:29.522Z,5.03
2018-09-19T08:08:58.252Z,5.97
2018-09-19T08:11:27.124Z,5.87
2018-09-19T08:13:56.109Z,5.83
2018-09-19T08:16:24.836Z,6.30
2018-09-19T08:18:53.545Z,5.22
2018-09-19T08:21:22.247Z,4.08
2018-09-19T08:23:57.642Z,4.33
2018-09-19T08:26:26.280Z,4.53
2018-09-19T08:28:54.989Z,3.70
2018-09-19T08:31:23.733Z,3.92
2018-09-19T08:33:52.438Z,4.45
2018-09-19T08:36:21.134Z,3.47
2018-09-19T08:38:49.818Z,3.30
2018-09-19T08:41:18.495Z,2.80
2018-09-19T08:43:47.173Z,4.00
2018-09-19T08:46:15.855Z,3.87
2018-09-19T08:48:44.547Z,3.40
2018-09-19T08:51:13.270Z,3.20
2018-09-19T08:53:41.965Z,3.75
2018-09-19T08:56:10.718Z,3.05
2018-09-19T08:58:39.470Z,3.27
2018-09-19T09:01:08.203Z,3.10
2018-09-19T09:03:36.875Z,2.95
2018-09-19T09:06:05.208Z,3.42
2018-09-19T09:08:33.891Z,3.08
2018-09-19T09:11:02.642Z,3.27
2018-09-19T09:13:31.391Z,2.58
2018-09-19T09:16:00.343Z,2.72
2018-09-19T09:18:29.071Z,2.85
2018-09-19T09:20:57.778Z,2.62
2018-09-19T09:23:26.501Z,3.00
2018-09-19T09:25:55.144Z,2.80
2018-09-19T09:28:23.811Z,3.60
2018-09-19T09:30:52.552Z,3.15
2018-09-19T09:33:21.233Z,3.52
2018-09-19T09:35:49.958Z,4.35
2018-09-19T09:38:18.684Z,2.95
2018-09-19T09:40:47.411Z,3.10
2018-09-19T09:43:16.192Z,3.83
2018-09-19T09:45:44.511Z,3.65
2018-09-19T09:48:13.180Z,3.75
2018-09-19T09:50:41.885Z,3.30
2018-09-19T09:53:10.675Z,3.65
2018-09-19T09:55:39.358Z,3.67
2018-09-19T09:58:08.095Z,3.45
2018-09-19T10:00:41.530Z,3.50
2018-09-19T10:03:11.568Z,3.12
2018-09-19T10:05:40.458Z,3.47
2018-09-19T10:08:09.198Z,3.80
2018-09-19T10:10:38.764Z,4.03
2018-09-19T10:13:07.498Z,3.77
2018-09-19T10:15:36.183Z,3.33
2018-09-19T10:18:04.935Z,4.12
2018-09-19T10:20:33.634Z,4.20
2018-09-19T10:23:02.345Z,4.72
2018-09-19T10:25:31.034Z,4.12
2018-09-19T10:27:59.712Z,4.17
2018-09-19T10:30:28.237Z,4.83
2018-09-19T10:32:56.892Z,3.98
2018-09-19T10:35:25.675Z,3.90
2018-09-19T10:37:54.368Z,3.65
2018-09-19T10:40:23.068Z,4.30
2018-09-19T10:42:51.784Z,4.00
2018-09-19T10:45:20.479Z,4.20
2018-09-19T10:47:49.182Z,4.00
2018-09-19T10:50:17.884Z,4.90
2018-09-19T10:52:46.588Z,3.77
2018-09-19T10:55:15.270Z,4.20
2018-09-19T10:57:43.956Z,4.17
2018-09-19T11:00:12.639Z,4.33
2018-09-19T11:02:41.398Z,4.50
2018-09-19T11:05:09.741Z,3.90
2018-09-19T11:07:38.428Z,3.47
2018-09-19T11:10:07.371Z,4.55
2018-09-19T11:12:36.068Z,3.98
2018-09-19T11:15:04.768Z,4.45
2018-09-19T11:17:33.474Z,4.55
2018-09-19T11:20:02.352Z,3.60
2018-09-19T11:22:31.034Z,4.45
2018-09-19T11:24:59.799Z,3.60
2018-09-19T11:27:28.464Z,3.62
2018-09-19T11:29:57.152Z,4.20
2018-09-19T11:32:25.953Z,3.80
2018-09-19T11:34:54.661Z,4.10
2018-09-19T11:37:23.344Z,3.95
2018-09-19T11:39:52.084Z,3.80
2018-09-19T11:42:20.888Z,4.08
2018-09-19T11:44:49.571Z,3.60
2018-09-19T11:47:18.282Z,3.25
2018-09-19T11:49:46.992Z,3.77
2018-09-19T11:52:15.750Z,3.45
2018-09-19T11:54:44.433Z,3.98
2018-09-19T11:57:13.125Z,3.87
2018-09-19T11:59:41.836Z,4.22
2018-09-19T12:02:10.956Z,3.33
2018-09-19T12:04:39.619Z,3.47
2018-09-19T12:07:08.319Z,3.40
2018-09-19T12:09:37.001Z,3.50
2018-09-19T12:12:05.753Z,4.08
2018-09-19T12:14:34.474Z,4.08
2018-09-19T12:17:03.253Z,3.60
2018-09-19T12:19:32.014Z,3.72
2018-09-19T12:22:00.648Z,3.27
2018-09-19T12:24:29.425Z,3.10
2018-09-19T12:26:58.105Z,3.17
2018-09-19T12:29:26.811Z,3.15
2018-09-19T12:31:55.517Z,3.37
2018-09-19T12:34:24.210Z,3.55
2018-09-19T12:36:52.897Z,4.35
2018-09-19T12:39:21.580Z,3.60
2018-09-19T12:41:50.308Z,3.02
2018-09-19T12:44:19.040Z,3.37
2018-09-19T12:46:47.856Z,3.15
2018-09-19T12:49:16.536Z,3.47
2018-09-19T12:51:45.217Z,2.77
2018-09-19T12:54:13.915Z,3.85
2018-09-19T12:56:43.132Z,3.37
2018-09-19T12:59:11.884Z,3.58
2018-09-19T13:01:40.588Z,3.35
2018-09-19T13:04:09.339Z,3.30
2018-09-19T13:06:38.037Z,3.42
2018-09-19T13:09:09.054Z,3.62
2018-09-19T13:11:37.915Z,3.20
2018-09-19T13:14:12.842Z,3.22
2018-09-19T13:16:41.468Z,3.05
2018-09-19T13:19:10.171Z,3.22
2018-09-19T13:21:38.863Z,3.50
2018-09-19T13:24:07.548Z,3.37
2018-09-19T13:26:36.360Z,3.72
2018-09-19T13:29:05.049Z,3.08
2018-09-19T13:31:33.764Z,3.80
2018-09-19T13:34:02.466Z,3.62
2018-09-19T13:36:31.213Z,3.33
2018-09-19T13:38:59.967Z,4.40
2018-09-19T13:41:28.646Z,3.90
2018-09-19T13:43:57.291Z,3.77
2018-09-19T13:46:26.194Z,3.60
2018-09-19T13:48:59.216Z,4.00
2018-09-19T13:51:27.923Z,3.85
2018-09-19T13:53:56.672Z,3.87
2018-09-19T13:56:25.364Z,3.58
2018-09-19T13:58:54.102Z,3.70
2018-09-19T14:01:22.813Z,3.85
2018-09-19T14:03:51.502Z,3.72
2018-09-19T14:06:20.176Z,3.80
2018-09-19T14:08:48.853Z,3.80
2018-09-19T14:11:17.543Z,3.58
2018-09-19T14:13:46.281Z,3.70
2018-09-19T14:16:14.995Z,4.03
2018-09-19T14:18:43.675Z,3.70
2018-09-19T14:21:12.452Z,3.72
2018-09-19T14:23:41.157Z,3.72
2018-09-19T14:26:09.881Z,3.58
2018-09-19T14:28:38.600Z,3.90
2018-09-19T14:31:07.338Z,3.60
2018-09-19T14:33:36.113Z,4.12
2018-09-19T14:36:04.834Z,3.98
2018-09-19T14:38:33.606Z,3.85
2018-09-19T14:41:02.298Z,3.45
2018-09-19T14:43:31.073Z,4.10
2018-09-19T14:45:59.760Z,3.60
2018-09-19T14:48:28.464Z,3.90
2018-09-19T14:50:57.180Z,3.47
2018-09-19T14:53:25.890Z,3.92
2018-09-19T14:55:54.582Z,4.20
2018-09-19T14:58:23.274Z,3.75
2018-09-19T15:00:52.010Z,3.85
2018-09-19T15:03:20.717Z,3.98
2018-09-19T15:05:49.569Z,4.20
2018-09-19T15:08:18.245Z,3.05
2018-09-19T15:10:46.927Z,3.45
2018-09-19T15:13:15.617Z,3.50
2018-09-19T15:15:44.311Z,3.20
2018-09-19T15:18:13.183Z,3.67
2018-09-19T15:20:41.797Z,3.58
2018-09-19T15:23:10.493Z,3.62
2018-09-19T15:25:39.185Z,3.80
2018-09-19T15:28:07.876Z,3.22
2018-09-19T15:30:36.601Z,3.70
2018-09-19T15:33:05.309Z,3.90
2018-09-19T15:35:34.035Z,3.42
2018-09-19T15:38:02.715Z,3.55
2018-09-19T15:40:31.400Z,3.50
2018-09-19T15:43:00.081Z,3.60
2018-09-19T15:45:28.831Z,3.75
2018-09-19T15:47:57.556Z,3.58
2018-09-19T15:50:26.310Z,3.70
2018-09-19T15:52:55.017Z,3.22
2018-09-19T15:55:23.721Z,3.47
2018-09-19T15:57:52.484Z,3.80
2018-09-19T16:00:21.322Z,3.58
2018-09-19T16:02:49.991Z,3.85
2018-09-19T16:05:18.746Z,4.00
2018-09-19T16:07:47.449Z,3.20
2018-09-19T16:10:16.201Z,3.55
2018-09-19T16:12:44.862Z,3.85
2018-09-19T16:15:13.552Z,3.30
2018-09-19T16:17:42.234Z,3.47
2018-09-19T16:20:11.143Z,3.62
2018-09-19T16:22:40.258Z,3.80
2018-09-19T16:25:08.977Z,3.90
2018-09-19T16:27:37.758Z,4.37
2018-09-19T16:30:06.493Z,4.35
2018-09-19T16:32:35.146Z,4.30
2018-09-19T16:35:03.861Z,3.65
2018-09-19T16:37:32.548Z,3.80
2018-09-19T16:40:01.281Z,3.80
2018-09-19T16:42:29.978Z,3.30
2018-09-19T16:44:58.718Z,3.77
2018-09-19T16:47:27.425Z,3.50
2018-09-19T16:49:56.225Z,3.47
2018-09-19T16:52:24.939Z,3.65
2018-09-19T16:54:53.755Z,3.47
2018-09-19T16:57:22.444Z,4.05
2018-09-19T16:59:51.147Z,4.40
2018-09-19T17:02:19.885Z,3.80
2018-09-19T17:04:48.653Z,3.52
2018-09-19T17:07:17.389Z,4.12
2018-09-19T17:09:46.058Z,3.60
2018-09-19T17:12:14.762Z,3.37
2018-09-19T17:14:43.463Z,3.45
2018-09-19T17:17:12.225Z,2.98
2018-09-19T17:19:40.901Z,4.00
2018-09-19T17:22:09.664Z,3.45
2018-09-19T17:24:38.351Z,3.65
2018-09-19T17:27:07.034Z,3.60
2018-09-19T17:29:35.797Z,3.55
2018-09-19T17:32:04.538Z,3.70
2018-09-19T17:34:33.326Z,3.85
2018-09-19T17:37:02.096Z,3.45
2018-09-19T17:39:30.809Z,3.50
2018-09-19T17:41:59.490Z,3.70
2018-09-19T17:44:28.178Z,3.75
2018-09-19T17:46:56.931Z,3.40
2018-09-19T17:49:25.717Z,3.30
2018-09-19T17:51:54.417Z,3.72
2018-09-19T17:54:23.610Z,3.60
2018-09-19T17:56:52.381Z,3.52
2018-09-19T17:59:21.092Z,3.27
2018-09-19T18:01:49.818Z,3.52
2018-09-19T18:04:18.563Z,3.60
2018-09-19T18:06:47.285Z,3.40
2018-09-19T18:09:15.993Z,3.72
2018-09-19T18:11:44.715Z,3.90
2018-09-19T18:14:13.444Z,3.20
2018-09-19T18:16:42.137Z,3.58
2018-09-19T18:19:10.899Z,4.15
2018-09-19T18:21:39.605Z,3.17
2018-09-19T18:24:08.299Z,3.15
2018-09-19T18:26:37.047Z,3.35
2018-09-19T18:29:06.001Z,3.00
2018-09-19T18:31:34.890Z,3.80
2018-09-19T18:34:03.617Z,3.27
2018-09-19T18:36:32.608Z,3.70
2018-09-19T18:39:01.361Z,3.60
2018-09-19T18:41:30.053Z,3.70
2018-09-19T18:43:58.744Z,3.83
2018-09-19T18:46:27.492Z,3.80
2018-09-19T18:48:56.181Z,3.12
2018-09-19T18:51:24.964Z,3.22
2018-09-19T18:53:53.753Z,3.45
2018-09-19T18:56:22.447Z,3.87
2018-09-19T18:58:51.228Z,3.42
2018-09-19T19:01:19.980Z,3.27
2018-09-19T19:03:48.749Z,3.37
2018-09-19T19:06:17.735Z,3.55
2018-09-19T19:08:46.480Z,3.10
2018-09-19T19:11:15.174Z,3.00
2018-09-19T19:13:43.950Z,3.70
2018-09-19T19:16:12.745Z,3.60
2018-09-19T19:18:41.479Z,3.37
2018-09-19T19:21:10.250Z,3.42
2018-09-19T19:23:38.986Z,3.37
2018-09-19T19:26:07.673Z,3.37
2018-09-19T19:28:36.427Z,3.22
2018-09-19T19:31:05.143Z,4.00
2018-09-19T19:33:33.872Z,3.55
2018-09-19T19:36:02.640Z,4.33
2018-09-19T19:38:31.403Z,3.15
2018-09-19T19:41:00.203Z,3.95
2018-09-19T19:43:28.857Z,3.45
2018-09-19T19:45:57.646Z,3.40
2018-09-19T19:48:26.375Z,3.33
2018-09-19T19:50:55.156Z,3.40
2018-09-19T19:53:23.861Z,3.17
2018-09-19T19:55:52.610Z,3.50
2018-09-19T19:58:21.371Z,4.00
2018-09-19T20:00:50.194Z,4.00
2018-09-19T20:03:19.110Z,3.37
2018-09-19T20:05:47.849Z,4.10
2018-09-19T20:08:16.535Z,3.42
2018-09-19T20:10:45.183Z,3.98
2018-09-19T20:13:13.884Z,3.60
2018-09-19T20:15:42.566Z,4.40
2018-09-19T20:18:11.361Z,3.70
2018-09-19T20:20:40.261Z,4.30
2018-09-19T20:23:08.962Z,5.58
2018-09-19T20:25:37.636Z,4.10
2018-09-19T20:28:06.345Z,4.55
2018-09-19T20:30:35.013Z,3.92
2018-09-19T20:33:03.736Z,4.28
2018-09-19T20:35:32.438Z,3.70
2018-09-19T20:38:01.291Z,3.62
2018-09-19T20:40:29.985Z,3.80
2018-09-19T20:42:58.725Z,3.83
2018-09-19T20:45:27.496Z,3.95
2018-09-19T20:47:56.340Z,3.62
2018-09-19T20:50:25.057Z,4.00
2018-09-19T20:52:53.726Z,4.33
2018-09-19T20:55:22.390Z,4.17
2018-09-19T20:57:51.122Z,4.17
2018-09-19T21:00:19.782Z,4.28
2018-09-19T21:02:48.471Z,4.10
2018-09-19T21:05:17.303Z,4.20
2018-09-19T21:07:46.069Z,4.15
2018-09-19T21:10:14.801Z,4.37
2018-09-19T21:12:43.493Z,3.80
2018-09-19T21:15:12.227Z,4.12
2018-09-19T21:17:40.941Z,4.33
2018-09-19T21:20:09.268Z,5.00
2018-09-19T21:22:38.081Z,4.50
2018-09-19T21:25:06.770Z,4.03
2018-09-19T21:27:35.450Z,3.95
2018-09-19T21:30:04.296Z,3.83
2018-09-19T21:32:32.997Z,3.98
2018-09-19T21:35:01.663Z,3.80
2018-09-19T21:37:31.089Z,3.60
2018-09-19T21:39:59.823Z,4.20
2018-09-19T21:42:28.525Z,4.12
2018-09-19T21:44:57.548Z,3.50
2018-09-19T21:47:26.259Z,3.80
2018-09-19T21:49:54.957Z,3.90
2018-09-19T21:52:23.653Z,3.72
2018-09-19T21:54:52.364Z,3.67
2018-09-19T21:57:21.045Z,3.90
2018-09-19T21:59:49.722Z,3.75
2018-09-19T22:02:19.045Z,3.70
2018-09-19T22:04:48.924Z,3.65
2018-09-19T22:07:17.691Z,4.22
2018-09-19T22:09:46.385Z,3.33
2018-09-19T22:12:15.095Z,4.72
2018-09-19T22:14:43.953Z,3.92
2018-09-19T22:17:12.790Z,3.77
2018-09-19T22:19:41.448Z,3.40
2018-09-19T22:22:10.145Z,4.15
2018-09-19T22:24:38.893Z,3.60
2018-09-19T22:27:07.644Z,4.60
2018-09-19T22:29:36.374Z,4.53
2018-09-19T22:32:05.037Z,4.53
2018-09-19T22:34:33.730Z,4.37
2018-09-19T22:37:02.402Z,4.45
2018-09-19T22:39:31.101Z,4.42
2018-09-19T22:41:59.770Z,4.55
2018-09-19T22:44:28.489Z,3.98
2018-09-19T22:46:58.085Z,4.80
2018-09-19T22:49:26.778Z,4.10
2018-09-19T22:51:55.517Z,4.92
2018-09-19T22:54:24.198Z,4.50
2018-09-19T22:56:52.930Z,4.20
2018-09-19T22:59:21.683Z,4.75
2018-09-19T23:01:50.459Z,3.50
2018-09-19T23:04:19.126Z,3.87
2018-09-19T23:06:47.913Z,4.33
2018-09-19T23:09:16.570Z,4.45
2018-09-19T23:11:45.285Z,4.33
2018-09-19T23:14:13.955Z,4.00
2018-09-19T23:16:42.649Z,4.58
2018-09-19T23:19:11.348Z,4.28
2018-09-19T23:21:40.011Z,4.17
2018-09-19T23:24:08.731Z,3.77
2018-09-19T23:26:37.410Z,4.80
2018-09-19T23:29:06.240Z,4.20
2018-09-19T23:31:34.913Z,3.90
2018-09-19T23:34:03.602Z,3.85
2018-09-19T23:37:02.867Z,4.65
2018-09-19T23:39:31.562Z,4.60
2018-09-19T23:42:00.240Z,4.28
2018-09-19T23:44:28.931Z,4.55
2018-09-19T23:46:57.613Z,4.78
2018-09-19T23:49:26.587Z,4.08
2018-09-19T23:51:55.328Z,4.10
2018-09-19T23:54:24.017Z,4.33
2018-09-19T23:56:52.646Z,4.50
2018-09-19T23:59:21.333Z,3.83
